Time;durP1;ratioP1;P1;durP2;ratioP2;P2;SDS_P1;SDS_P2;PMS_P1;PMS_P2;Temp;Humidity;BMP_temperature;BMP_pressure;BME280_temperature;BME280_humidity;BME280_pressure;Samples;Min_cycle;Max_cycle;Signal;HPM_P1;HPM_P2
2021/07/15 00:01:18;;;;;;;0.20;0.20;;;;;;;13.09;92.04;95136.25;4977913;28;20223;-80
2021/07/15 00:03:44;;;;;;;1.77;0.27;;;;;;;13.07;91.86;95130.38;4994484;28;20238;-79
2021/07/15 00:06:09;;;;;;;2.20;0.20;;;;;;;13.12;91.91;95138.50;4994319;28;20203;-78
2021/07/15 00:08:35;;;;;;;0.97;0.20;;;;;;;13.08;91.89;95134.63;4978210;28;20184;-79
2021/07/15 00:11:05;;;;;;;0.67;0.13;;;;;;;13.07;91.79;95135.59;4993108;28;20187;-79
2021/07/15 00:13:31;;;;;;;0.17;0.17;;;;;;;13.07;92.27;95126.97;4994008;28;20678;-80
2021/07/15 00:15:58;;;;;;;0.63;0.20;;;;;;;13.12;91.88;95127.28;4992965;28;20226;-79
2021/07/15 00:18:30;;;;;;;0.83;0.20;;;;;;;12.97;92.34;95117.56;4994073;28;20184;-80
2021/07/15 00:20:57;;;;;;;0.67;0.47;;;;;;;12.93;92.60;95118.09;4975200;28;20198;-79
2021/07/15 00:23:23;;;;;;;1.33;0.20;;;;;;;12.98;92.39;95111.38;4977341;28;20204;-80
2021/07/15 00:25:48;;;;;;;0.53;0.10;;;;;;;12.92;92.49;95106.88;4993711;28;20589;-80
2021/07/15 00:28:15;;;;;;;0.20;0.20;;;;;;;12.95;92.48;95116.94;4993925;28;20179;-79
2021/07/15 00:30:40;;;;;;;2.57;0.23;;;;;;;12.98;92.61;95121.81;4992050;28;20541;-79
2021/07/15 00:33:06;;;;;;;0.30;0.20;;;;;;;12.93;92.84;95110.28;4993424;28;20212;-79
2021/07/15 00:35:32;;;;;;;0.33;0.17;;;;;;;12.95;92.63;95116.13;4993862;28;20595;-79
2021/07/15 00:37:59;;;;;;;0.10;0.10;;;;;;;12.90;93.21;95111.44;4977724;28;20180;-79
2021/07/15 00:40:24;;;;;;;1.90;0.30;;;;;;;12.90;92.93;95119.28;4977413;28;20215;-79
2021/07/15 00:42:50;;;;;;;2.00;0.40;;;;;;;12.90;92.94;95115.84;4974336;28;20318;-80
2021/07/15 00:45:18;;;;;;;0.27;0.20;;;;;;;12.95;92.99;95116.94;4993298;28;20188;-78
2021/07/15 00:47:43;;;;;;;2.13;0.30;;;;;;;12.96;92.58;95107.31;4994048;28;20285;-79
2021/07/15 00:50:09;;;;;;;0.27;0.20;;;;;;;12.96;92.42;95107.31;4977404;28;20180;-80
2021/07/15 00:52:35;;;;;;;1.07;0.30;;;;;;;12.95;92.54;95109.13;4991997;28;20269;-79
2021/07/15 00:55:02;;;;;;;2.50;0.33;;;;;;;12.92;93.08;95111.28;4993270;28;20197;-80
2021/07/15 00:57:28;;;;;;;1.70;0.30;;;;;;;12.84;93.01;95095.69;4977503;28;20199;-80
2021/07/15 00:59:53;;;;;;;0.77;0.20;;;;;;;12.87;92.95;95098.75;4973833;28;20656;-79
2021/07/15 01:02:19;;;;;;;0.40;0.33;;;;;;;12.82;93.43;95100.28;4973980;28;20197;-78
2021/07/15 01:04:44;;;;;;;0.97;0.30;;;;;;;12.76;93.47;95086.94;4991177;28;20188;-80
2021/07/15 01:07:09;;;;;;;1.53;0.33;;;;;;;12.83;93.07;95079.25;4993395;28;20231;-79
2021/07/15 01:09:35;;;;;;;1.37;0.40;;;;;;;12.74;93.33;95068.06;4977180;28;20227;-80
2021/07/15 01:12:16;;;;;;;0.83;0.40;;;;;;;12.73;93.17;95061.22;4976771;28;20216;-79
2021/07/15 01:14:58;;;;;;;1.03;0.40;;;;;;;12.65;93.17;95076.91;4971969;28;20247;-79
2021/07/15 01:17:26;;;;;;;0.77;0.43;;;;;;;12.64;93.51;95079.69;4986028;28;20291;-80
2021/07/15 01:20:09;;;;;;;1.60;0.30;;;;;;;12.58;93.69;95086.38;4977057;28;20184;-80
2021/07/15 01:22:38;;;;;;;0.67;0.30;;;;;;;12.62;93.75;95100.69;4992899;28;20282;-80
2021/07/15 01:25:30;;;;;;;0.30;0.30;;;;;;;12.68;93.56;95076.56;4974932;28;20246;-79
2021/07/15 01:28:18;;;;;;;1.60;0.40;;;;;;;12.58;94.14;95073.38;4992796;28;20266;-80
2021/07/15 01:30:46;;;;;;;0.70;0.40;;;;;;;12.64;94.03;95077.91;4973348;28;20315;-81
2021/07/15 01:33:23;;;;;;;0.20;0.20;;;;;;;12.60;94.02;95071.38;4992397;28;20299;-81
2021/07/15 01:35:57;;;;;;;0.93;0.40;;;;;;;12.61;94.03;95078.22;4991897;28;20219;-78
2021/07/15 01:38:26;;;;;;;1.03;0.33;;;;;;;12.61;94.21;95083.44;4985695;28;20194;-79
2021/07/15 01:40:57;;;;;;;0.30;0.30;;;;;;;12.67;93.73;95081.94;4975840;28;20186;-79
2021/07/15 01:43:28;;;;;;;1.90;0.30;;;;;;;12.63;93.72;95076.28;4992187;28;20238;-79
2021/07/15 01:45:53;;;;;;;0.80;0.30;;;;;;;12.61;94.29;95080.81;4991344;28;20222;-79
2021/07/15 01:48:19;;;;;;;0.80;0.80;;;;;;;12.59;93.95;95082.78;4976043;28;20184;-79
2021/07/15 01:50:44;;;;;;;0.47;0.47;;;;;;;12.67;94.33;95081.94;4992316;28;20219;-79
2021/07/15 01:53:10;;;;;;;0.20;0.20;;;;;;;12.66;93.19;95075.91;4975868;28;20203;-79
2021/07/15 01:55:36;;;;;;;0.40;0.30;;;;;;;12.63;94.03;95085.84;4976181;28;20184;-78
2021/07/15 01:58:02;;;;;;;3.30;0.93;;;;;;;12.73;93.76;95084.69;4991380;28;20198;-79
2021/07/15 02:00:27;;;;;;;3.13;0.30;;;;;;;12.66;93.65;95086.34;4992041;28;20183;-79
2021/07/15 02:02:54;;;;;;;2.57;0.30;;;;;;;12.63;93.71;95083.25;4993358;28;20322;-77
2021/07/15 02:05:20;;;;;;;1.17;0.30;;;;;;;12.61;93.51;95083.44;4992211;28;20176;-79
2021/07/15 02:07:47;;;;;;;0.27;0.20;;;;;;;12.69;93.51;95086.00;4974414;28;20691;-79
2021/07/15 02:10:17;;;;;;;0.30;0.27;;;;;;;12.65;93.52;95079.50;4975759;28;20191;-79
2021/07/15 02:12:43;;;;;;;0.97;0.30;;;;;;;12.68;93.30;95079.16;4991917;28;20203;-79
2021/07/15 02:15:08;;;;;;;0.63;0.23;;;;;;;12.71;92.90;95078.81;4993419;28;20180;-80
2021/07/15 02:17:36;;;;;;;0.20;0.20;;;;;;;12.65;93.23;95079.50;4990444;28;20572;-80
2021/07/15 02:20:04;;;;;;;0.30;0.20;;;;;;;12.62;93.18;95074.63;4975374;28;20203;-78
2021/07/15 02:22:29;;;;;;;0.30;0.30;;;;;;;12.63;93.27;95081.47;4991644;28;20184;-80
2021/07/15 02:24:55;;;;;;;0.13;0.13;;;;;;;12.57;92.97;95086.56;4975576;28;20262;-80
2021/07/15 02:27:20;;;;;;;0.20;0.20;;;;;;;12.62;92.96;95089.44;4991820;28;20238;-80
2021/07/15 02:29:46;;;;;;;1.60;0.30;;;;;;;12.57;92.88;95087.38;4974180;28;20199;-79
2021/07/15 02:32:13;;;;;;;1.43;0.27;;;;;;;12.50;93.44;95091.63;4991660;28;20665;-80
2021/07/15 02:34:58;;;;;;;0.20;0.20;;;;;;;12.55;93.13;95093.75;4975655;28;20208;-79
2021/07/15 02:37:33;;;;;;;1.33;0.27;;;;;;;12.54;93.47;95095.50;4991737;28;20171;-80
2021/07/15 02:39:58;;;;;;;0.10;0.10;;;;;;;12.58;93.38;95093.38;4990449;28;20229;-79
2021/07/15 02:42:24;;;;;;;0.20;0.20;;;;;;;12.59;93.37;95088.00;4991283;28;20242;-80
2021/07/15 02:44:49;;;;;;;1.70;0.20;;;;;;;12.54;93.43;95082.47;4991706;28;20195;-80
2021/07/15 02:47:15;;;;;;;1.10;0.20;;;;;;;12.55;93.54;95084.13;4975396;28;20208;-79
2021/07/15 02:49:41;;;;;;;0.50;0.20;;;;;;;12.56;93.28;95088.34;4990434;28;20234;-80
2021/07/15 02:52:07;;;;;;;0.40;0.20;;;;;;;12.50;93.32;95086.44;4974038;28;20625;-79
2021/07/15 02:54:32;;;;;;;0.20;0.20;;;;;;;12.50;93.65;95086.44;4975067;28;20230;-80
2021/07/15 02:57:30;;;;;;;0.50;0.10;;;;;;;12.47;93.50;95081.56;4975320;28;20179;-79
2021/07/15 03:00:21;;;;;;;0.10;0.10;;;;;;;12.49;93.60;95095.22;4974949;28;20662;-80
2021/07/15 03:03:01;;;;;;;0.33;0.30;;;;;;;12.46;93.93;95085.97;4990011;28;20740;-78
2021/07/15 03:05:28;;;;;;;0.20;0.20;;;;;;;12.48;93.91;95085.78;4971976;28;20271;-80
2021/07/15 03:08:01;;;;;;;3.40;0.30;;;;;;;12.52;93.83;95089.66;4972108;28;20266;-79
2021/07/15 03:10:26;;;;;;;0.97;0.30;;;;;;;12.57;93.68;95095.19;4955999;28;20236;-79
2021/07/15 03:12:52;;;;;;;1.23;0.40;;;;;;;12.52;93.59;95094.88;4988995;28;20353;-80
2021/07/15 03:15:17;;;;;;;0.20;0.20;;;;;;;12.57;93.49;95092.59;4974953;28;20655;-80
2021/07/15 03:17:47;;;;;;;0.47;0.40;;;;;;;12.52;93.60;95094.06;4974960;28;20559;-80
2021/07/15 03:20:16;;;;;;;0.20;0.20;;;;;;;12.54;93.49;95086.88;4975388;28;20215;-80
2021/07/15 03:22:44;;;;;;;0.40;0.20;;;;;;;12.55;93.51;95093.75;4989803;28;20795;-80
2021/07/15 03:25:12;;;;;;;1.17;0.20;;;;;;;12.51;93.48;95097.66;4991130;28;20191;-81
2021/07/15 03:27:43;;;;;;;0.73;0.27;;;;;;;12.51;93.72;95103.66;4974953;28;20579;-79
2021/07/15 03:30:09;;;;;;;1.23;0.20;;;;;;;12.46;94.03;95103.38;4991142;28;20191;-80
2021/07/15 03:32:36;;;;;;;0.27;0.27;;;;;;;12.51;94.27;95114.09;4989536;28;20239;-80
2021/07/15 03:35:03;;;;;;;0.20;0.20;;;;;;;12.54;93.73;95113.72;4991196;28;20259;-80
2021/07/15 03:37:28;;;;;;;3.00;0.30;;;;;;;12.57;93.97;95103.00;4975139;28;20299;-80
2021/07/15 03:39:54;;;;;;;1.53;0.20;;;;;;;12.54;93.73;95108.53;4991431;28;20636;-80
2021/07/15 03:42:20;;;;;;;0.20;0.20;;;;;;;12.56;93.89;95111.00;4990680;28;20192;-80
2021/07/15 03:44:46;;;;;;;0.20;0.20;;;;;;;12.57;93.50;95117.81;4973187;28;20188;-80
2021/07/15 03:47:13;;;;;;;2.27;0.20;;;;;;;12.58;93.34;95117.63;4971884;28;20271;-80
2021/07/15 03:49:40;;;;;;;0.20;0.20;;;;;;;12.61;93.49;95119.09;4955371;28;20228;-79
2021/07/15 03:52:05;;;;;;;0.33;0.20;;;;;;;12.63;93.84;95130.13;4955475;28;20181;-81
2021/07/15 03:54:31;;;;;;;0.40;0.30;;;;;;;12.60;93.65;95131.31;4979896;28;20592;-79
2021/07/15 03:56:57;;;;;;;0.20;0.20;;;;;;;12.70;93.16;95125.88;4990864;28;20270;-81
2021/07/15 03:59:23;;;;;;;0.30;0.20;;;;;;;12.70;93.42;95125.88;4974810;28;20268;-80
2021/07/15 04:02:03;;;;;;;0.80;0.30;;;;;;;12.70;93.34;95120.66;4974400;28;20291;-80
2021/07/15 04:04:30;;;;;;;0.20;0.20;;;;;;;12.74;93.57;95124.56;4975762;28;20274;-80
2021/07/15 04:06:57;;;;;;;1.30;0.40;;;;;;;12.75;93.37;95127.00;4978239;28;20226;-81
2021/07/15 04:09:23;;;;;;;1.40;0.20;;;;;;;12.75;93.24;95131.41;4994661;28;20187;-78
2021/07/15 04:11:50;;;;;;;0.30;0.30;;;;;;;12.76;93.36;95123.41;4994216;28;20188;-80
2021/07/15 04:14:21;;;;;;;0.20;0.20;;;;;;;12.80;93.41;95116.06;4994579;28;20191;-79
2021/07/15 04:17:05;;;;;;;1.60;0.30;;;;;;;12.76;93.38;95120.81;4970481;28;20187;-80
2021/07/15 04:19:32;;;;;;;1.07;0.20;;;;;;;12.85;93.12;95131.19;4991185;28;20181;-80
2021/07/15 04:21:58;;;;;;;1.03;0.17;;;;;;;12.89;93.03;95112.41;5007347;28;20177;-80
2021/07/15 04:24:24;;;;;;;0.73;0.20;;;;;;;12.89;92.83;95117.63;4991125;28;20216;-80
2021/07/15 04:26:50;;;;;;;1.40;0.37;;;;;;;12.99;92.65;95127.84;5008428;28;20303;-80
2021/07/15 04:29:16;;;;;;;0.60;0.20;;;;;;;12.95;92.65;95121.34;4977970;28;20270;-80
2021/07/15 04:32:19;;;;;;;1.10;0.40;;;;;;;12.98;92.43;95127.00;4977869;28;20577;-80
2021/07/15 04:34:45;;;;;;;0.50;0.20;;;;;;;13.05;92.23;95133.16;4995177;28;20262;-80
2021/07/15 04:37:11;;;;;;;3.03;0.30;;;;;;;13.05;91.77;95133.16;4976604;28;20267;-80
2021/07/15 04:39:37;;;;;;;0.20;0.20;;;;;;;13.14;91.69;95135.72;4994050;28;20658;-81
2021/07/15 04:42:03;;;;;;;0.70;0.30;;;;;;;13.13;91.84;95136.72;4961320;28;20188;-81
2021/07/15 04:44:33;;;;;;;0.20;0.20;;;;;;;13.16;91.60;95136.34;4977626;28;20274;-81
2021/07/15 04:47:00;;;;;;;1.90;0.30;;;;;;;13.11;91.97;95136.88;4992722;28;20210;-80
2021/07/15 04:49:26;;;;;;;0.50;0.30;;;;;;;13.08;91.82;95136.44;4993897;28;20211;-82
2021/07/15 04:51:52;;;;;;;0.40;0.40;;;;;;;13.08;91.70;95132.03;4995750;28;20183;-83
2021/07/15 04:54:18;;;;;;;0.47;0.20;;;;;;;13.21;91.16;95129.69;4988281;28;20207;-80
2021/07/15 04:56:43;;;;;;;1.70;0.20;;;;;;;13.25;91.20;95124.91;4982675;28;20195;-80
2021/07/15 04:59:09;;;;;;;1.23;0.40;;;;;;;13.25;91.08;95128.38;4983187;28;20262;-78
2021/07/15 05:01:35;;;;;;;1.70;0.30;;;;;;;13.34;91.08;95136.94;4993394;28;20706;-79
2021/07/15 05:04:01;;;;;;;1.33;0.40;;;;;;;13.43;90.91;95135.03;4973918;28;20204;-79
2021/07/15 05:06:26;;;;;;;2.27;0.40;;;;;;;13.49;90.51;95123.91;4975270;28;20259;-79
2021/07/15 05:08:51;;;;;;;0.67;0.30;;;;;;;13.54;89.89;95119.81;4979819;28;20198;-79
2021/07/15 05:11:17;;;;;;;0.40;0.40;;;;;;;13.69;88.92;95119.81;4993338;28;20184;-79
2021/07/15 05:13:43;;;;;;;1.13;0.40;;;;;;;13.78;89.14;95120.56;4992371;28;20786;-80
2021/07/15 05:16:08;;;;;;;0.60;0.30;;;;;;;13.90;88.50;95116.56;4992287;28;20180;-79
2021/07/15 05:18:34;;;;;;;0.73;0.40;;;;;;;13.95;88.13;95129.88;4993434;28;20619;-79
2021/07/15 05:21:00;;;;;;;7.07;0.60;;;;;;;14.07;87.76;95128.44;4991685;28;20227;-79
2021/07/15 05:23:25;;;;;;;0.20;0.20;;;;;;;14.25;87.43;95132.50;4992800;28;20294;-78
2021/07/15 05:25:51;;;;;;;0.70;0.30;;;;;;;14.29;86.11;95134.56;4977106;28;20606;-79
2021/07/15 05:28:17;;;;;;;1.10;0.20;;;;;;;14.28;86.61;95135.56;4992310;28;20203;-79
2021/07/15 05:30:42;;;;;;;0.43;0.20;;;;;;;14.36;86.31;95142.50;4994273;28;20184;-79
2021/07/15 05:33:08;;;;;;;0.57;0.30;;;;;;;14.38;85.26;95143.94;4992799;28;20679;-79
2021/07/15 05:35:33;;;;;;;0.20;0.20;;;;;;;14.30;85.69;95149.25;4976847;28;20639;-79
2021/07/15 05:37:59;;;;;;;0.30;0.20;;;;;;;14.06;85.60;95154.75;4975895;28;20591;-79
2021/07/15 05:40:25;;;;;;;2.47;0.40;;;;;;;14.01;86.00;95160.47;5008335;28;20184;-81
2021/07/15 05:42:50;;;;;;;0.40;0.40;;;;;;;13.93;86.54;95152.72;4975786;28;20215;-81
2021/07/15 05:45:16;;;;;;;2.50;0.40;;;;;;;13.79;87.19;95156.13;4993776;28;20262;-79
2021/07/15 05:47:41;;;;;;;1.50;0.30;;;;;;;13.68;87.86;95159.97;4992774;28;20211;-80
2021/07/15 05:50:07;;;;;;;0.70;0.20;;;;;;;13.61;88.16;95164.28;4990732;28;20640;-79
2021/07/15 05:52:32;;;;;;;2.10;0.20;;;;;;;13.71;87.49;95172.66;4991776;28;20219;-78
2021/07/15 05:54:58;;;;;;;1.30;0.20;;;;;;;13.76;86.52;95170.31;4976296;28;20270;-79
2021/07/15 05:57:24;;;;;;;1.47;0.20;;;;;;;13.92;86.03;95169.38;4990089;28;20264;-78
2021/07/15 05:59:50;;;;;;;0.77;0.30;;;;;;;14.21;85.92;95173.00;4991881;28;20195;-79
2021/07/15 06:02:17;;;;;;;0.40;0.20;;;;;;;14.35;85.34;95173.03;4974438;28;20187;-79
2021/07/15 06:04:42;;;;;;;0.27;0.20;;;;;;;14.28;84.37;95179.97;4992187;28;20550;-77
2021/07/15 06:07:08;;;;;;;0.10;0.10;;;;;;;14.21;84.30;95176.44;4993143;28;20258;-78
2021/07/15 06:09:33;;;;;;;0.30;0.30;;;;;;;14.28;85.12;95179.97;4990668;28;20196;-78
2021/07/15 06:11:58;;;;;;;1.67;0.30;;;;;;;14.46;85.40;95192.69;4991718;28;20255;-78
2021/07/15 06:14:24;;;;;;;0.20;0.20;;;;;;;14.54;84.72;95183.97;4991902;28;20600;-78
2021/07/15 06:16:49;;;;;;;0.37;0.30;;;;;;;14.58;84.76;95190.47;4991684;28;20234;-77
2021/07/15 06:19:14;;;;;;;1.63;0.40;;;;;;;14.56;83.30;95190.63;4969718;28;20195;-77
2021/07/15 06:21:40;;;;;;;1.58;0.35;;;;;;;14.63;84.39;95201.97;4970127;28;20242;-77
2021/07/15 06:24:05;;;;;;;2.13;0.37;;;;;;;14.37;85.26;95197.16;4977859;28;20208;-78
2021/07/15 06:26:30;;;;;;;0.20;0.20;;;;;;;14.20;85.77;95190.50;5009447;28;20334;-77
2021/07/15 06:28:56;;;;;;;1.73;0.40;;;;;;;14.48;85.46;95197.75;4993400;28;20175;-79
2021/07/15 06:31:21;;;;;;;2.20;0.40;;;;;;;14.64;85.16;95201.00;4989895;28;20604;-77
2021/07/15 06:33:46;;;;;;;0.50;0.40;;;;;;;14.75;85.09;95202.31;4992705;28;20195;-78
2021/07/15 06:36:12;;;;;;;1.37;0.50;;;;;;;14.76;84.88;95201.38;4992533;28;20184;-78
2021/07/15 06:38:38;;;;;;;0.90;0.80;;;;;;;14.83;84.92;95201.44;4992524;28;20211;-76
2021/07/15 06:41:08;;;;;;;2.53;1.07;;;;;;;15.03;84.67;95197.28;4976021;28;20183;-78
2021/07/15 06:43:34;;;;;;;1.17;0.50;;;;;;;15.02;84.48;95206.09;4975173;28;20212;-79
2021/07/15 06:45:59;;;;;;;1.70;0.70;;;;;;;14.99;84.29;95202.03;4975998;28;20235;-78
2021/07/15 06:48:25;;;;;;;0.50;0.50;;;;;;;15.26;82.93;95199.72;4994796;28;20266;-79
2021/07/15 06:50:51;;;;;;;1.30;0.50;;;;;;;15.15;81.37;95190.56;4977976;28;20188;-80
2021/07/15 06:53:16;;;;;;;0.57;0.40;;;;;;;15.14;82.63;95186.31;4985156;28;20203;-79
2021/07/15 06:55:42;;;;;;;1.10;0.50;;;;;;;15.56;82.42;95187.38;4993110;28;20187;-79
2021/07/15 06:58:07;;;;;;;0.43;0.40;;;;;;;15.65;81.87;95185.47;4993147;28;20180;-76
2021/07/15 07:00:33;;;;;;;0.40;0.40;;;;;;;15.69;81.84;95184.09;4994419;28;20198;-79
2021/07/15 07:02:58;;;;;;;0.65;0.60;;;;;;;15.61;81.18;95185.00;4965525;28;20200;-78
2021/07/15 07:05:24;;;;;;;0.80;0.80;;;;;;;15.92;79.27;95178.66;4993918;28;20500;-76
2021/07/15 07:07:49;;;;;;;0.40;0.40;;;;;;;16.59;78.02;95183.31;4968750;28;20251;-77
2021/07/15 07:10:15;;;;;;;0.40;0.40;;;;;;;17.26;76.51;95180.00;4970716;28;20271;-78
2021/07/15 07:12:41;;;;;;;0.73;0.43;;;;;;;17.09;73.76;95190.03;4959541;28;20208;-78
2021/07/15 07:15:08;;;;;;;0.30;0.30;;;;;;;17.14;75.39;95189.44;4992022;28;20195;-78
2021/07/15 07:17:33;;;;;;;0.43;0.20;;;;;;;16.80;73.97;95191.16;4992365;28;20734;-78
2021/07/15 07:19:59;;;;;;;1.58;0.47;;;;;;;16.54;76.09;95186.53;4993725;28;20172;-80
2021/07/15 07:22:25;;;;;;;0.45;0.35;;;;;;;16.70;75.60;95188.88;4990529;28;20190;-75
2021/07/15 07:24:50;;;;;;;0.30;0.30;;;;;;;16.47;76.31;95187.50;4991334;28;20183;-74
2021/07/15 07:27:15;;;;;;;0.30;0.20;;;;;;;16.32;76.17;95192.84;4991004;28;20243;-75
2021/07/15 07:29:40;;;;;;;0.45;0.40;;;;;;;16.73;75.74;95190.28;4991881;28;20180;-75
2021/07/15 07:32:06;;;;;;;0.73;0.32;;;;;;;17.12;74.40;95189.66;4972330;28;20192;-75
2021/07/15 07:34:31;;;;;;;1.42;0.38;;;;;;;17.22;74.54;95197.94;4974863;28;20200;-76
2021/07/15 07:36:57;;;;;;;0.63;0.30;;;;;;;17.70;73.06;95197.91;4974896;28;20180;-77
2021/07/15 07:39:23;;;;;;;0.30;0.30;;;;;;;17.70;72.66;95197.91;4992781;28;20179;-76
2021/07/15 07:41:48;;;;;;;0.80;0.20;;;;;;;17.80;71.60;95208.03;4993880;28;20269;-75
2021/07/15 07:44:15;;;;;;;0.45;0.30;;;;;;;17.68;71.30;95205.16;5010449;28;20218;-76
2021/07/15 07:46:40;;;;;;;0.30;0.30;;;;;;;17.50;71.91;95202.28;4994930;28;20305;-76
2021/07/15 07:49:05;;;;;;;0.20;0.20;;;;;;;17.22;71.47;95207.63;4998044;28;20684;-76
2021/07/15 07:51:31;;;;;;;0.38;0.20;;;;;;;16.91;73.68;95206.31;4985241;28;20655;-77
2021/07/15 07:53:57;;;;;;;0.25;0.20;;;;;;;16.88;74.54;95203.28;4965018;28;20265;-76
2021/07/15 07:56:22;;;;;;;0.40;0.30;;;;;;;16.81;75.65;95208.50;4982395;28;20199;-77
2021/07/15 07:58:48;;;;;;;1.02;0.30;;;;;;;16.92;76.01;95210.56;4993148;28;20176;-76
2021/07/15 08:01:14;;;;;;;0.80;0.80;;;;;;;16.72;76.53;95219.34;4993798;28;20172;-77
2021/07/15 08:03:39;;;;;;;0.30;0.30;;;;;;;16.38;77.19;95228.75;4975703;28;20740;-77
2021/07/15 08:06:04;;;;;;;1.15;0.65;;;;;;;15.96;80.05;95234.88;4993281;28;20873;-76
2021/07/15 08:08:30;;;;;;;0.98;0.50;;;;;;;15.76;80.77;95235.50;5013752;28;20298;-77
2021/07/15 08:10:55;;;;;;;0.43;0.43;;;;;;;15.69;79.66;95237.25;4997501;28;20214;-76
2021/07/15 08:13:20;;;;;;;0.45;0.40;;;;;;;15.84;79.73;95238.00;4995351;28;20235;-76
2021/07/15 08:15:46;;;;;;;1.67;0.35;;;;;;;15.74;81.02;95247.97;4992158;28;20201;-75
2021/07/15 08:18:11;;;;;;;1.30;0.88;;;;;;;15.67;82.34;95247.09;4969949;28;20192;-76
2021/07/15 08:20:37;;;;;;;0.50;0.50;;;;;;;15.73;83.22;95251.59;4958578;28;20192;-78
2021/07/15 08:23:04;;;;;;;1.08;0.70;;;;;;;16.03;82.15;95257.50;4958026;28;20201;-78
2021/07/15 08:25:29;;;;;;;2.40;0.88;;;;;;;16.13;81.48;95254.56;4985529;28;20194;-76
2021/07/15 08:27:55;;;;;;;0.50;0.50;;;;;;;16.30;80.13;95253.28;4993607;28;20200;-77
2021/07/15 08:30:20;;;;;;;0.52;0.50;;;;;;;16.38;80.80;95255.78;4977977;28;20184;-78
2021/07/15 08:32:46;;;;;;;0.75;0.30;;;;;;;16.15;80.62;95263.03;4977830;28;20250;-78
2021/07/15 08:35:11;;;;;;;0.35;0.30;;;;;;;16.13;81.17;95265.84;4993667;28;20215;-77
2021/07/15 08:37:36;;;;;;;0.65;0.20;;;;;;;16.26;81.23;95265.16;4995958;28;20261;-77
2021/07/15 08:40:06;;;;;;;0.25;0.20;;;;;;;16.66;81.84;95261.00;4994492;28;20175;-77
2021/07/15 08:42:32;;;;;;;0.38;0.28;;;;;;;16.95;81.24;95254.75;4976166;28;20212;-77
2021/07/15 08:45:04;;;;;;;0.47;0.30;;;;;;;16.50;81.16;95257.88;4994823;28;20184;-78
2021/07/15 08:47:30;;;;;;;0.50;0.50;;;;;;;16.62;79.93;95262.41;4994264;28;20238;-78
2021/07/15 08:49:56;;;;;;;0.40;0.40;;;;;;;16.59;80.35;95268.00;4993096;28;20567;-78
2021/07/15 08:52:21;;;;;;;0.82;0.20;;;;;;;16.35;81.18;95271.09;4989756;28;20210;-75
2021/07/15 08:55:01;;;;;;;0.50;0.40;;;;;;;16.78;80.39;95265.75;4976041;28;20212;-77
2021/07/15 08:57:27;;;;;;;0.50;0.50;;;;;;;16.95;79.06;95267.06;4981576;28;20179;-79
2021/07/15 08:59:52;;;;;;;0.25;0.25;;;;;;;16.89;78.58;95265.22;4994596;28;20184;-76
2021/07/15 09:02:19;;;;;;;0.50;0.50;;;;;;;17.00;78.22;95272.53;4978292;28;20179;-80
2021/07/15 09:04:45;;;;;;;1.48;0.47;;;;;;;17.19;78.89;95274.44;4993512;28;20736;-79
2021/07/15 09:07:11;;;;;;;0.90;0.80;;;;;;;17.05;78.02;95280.66;4994573;28;20242;-79
2021/07/15 09:09:36;;;;;;;0.75;0.75;;;;;;;17.05;77.39;95279.81;4995364;28;20187;-76
2021/07/15 09:12:02;;;;;;;1.17;1.08;;;;;;;17.04;77.52;95273.75;4977089;28;20547;-77
2021/07/15 09:14:27;;;;;;;1.42;1.33;;;;;;;17.60;77.66;95281.47;4992114;28;20204;-78
2021/07/15 09:16:56;;;;;;;2.78;1.10;;;;;;;18.19;76.94;95280.81;4994183;28;20176;-78
2021/07/15 09:19:24;;;;;;;0.88;0.88;;;;;;;18.13;74.13;95281.63;4993961;28;20311;-78
2021/07/15 09:21:50;;;;;;;0.60;0.60;;;;;;;18.40;75.44;95287.69;4977188;28;20551;-78
2021/07/15 09:24:37;;;;;;;0.57;0.57;;;;;;;18.24;71.50;95288.91;4975623;28;20200;-82
2021/07/15 09:27:11;;;;;;;0.77;0.60;;;;;;;18.49;71.99;95285.69;4989350;28;20239;-76
2021/07/15 09:29:37;;;;;;;0.68;0.68;;;;;;;18.50;72.07;95282.84;4991331;28;20639;-78
2021/07/15 09:32:03;;;;;;;1.17;1.08;;;;;;;18.47;72.41;95287.72;4990703;28;20315;-78
2021/07/15 09:34:34;;;;;;;0.80;0.80;;;;;;;17.93;73.55;95296.53;4974509;28;20203;-77
2021/07/15 09:37:10;;;;;;;2.67;1.02;;;;;;;17.23;75.23;95294.06;4988915;28;20268;-76
2021/07/15 09:39:47;;;;;;;0.57;0.55;;;;;;;16.92;77.14;95297.09;4992501;28;20175;-78
2021/07/15 09:42:20;;;;;;;0.98;0.80;;;;;;;17.04;77.73;95294.75;4991143;28;20245;-79
2021/07/15 09:44:53;;;;;;;1.10;1.10;;;;;;;16.85;77.31;95303.31;4975284;28;20283;-78
2021/07/15 09:47:33;;;;;;;1.70;1.10;;;;;;;17.05;76.46;95296.38;4967463;28;20241;-79
2021/07/15 09:50:00;;;;;;;1.02;1.00;;;;;;;17.07;76.98;95301.44;4991694;28;20176;-79
2021/07/15 09:52:25;;;;;;;1.38;1.00;;;;;;;16.96;78.34;95302.75;5005088;28;20195;-77
2021/07/15 09:54:51;;;;;;;1.08;1.08;;;;;;;16.96;79.57;95300.97;5010965;28;20191;-78
2021/07/15 09:57:28;;;;;;;1.52;1.00;;;;;;;16.72;79.40;95306.66;4985182;28;20651;-77
2021/07/15 09:59:58;;;;;;;2.47;1.52;;;;;;;16.74;80.85;95306.47;4974533;28;20278;-77
2021/07/15 10:02:31;;;;;;;1.58;1.48;;;;;;;16.84;79.60;95309.56;4974413;28;20179;-76
2021/07/15 10:04:56;;;;;;;1.58;1.48;;;;;;;16.86;79.07;95310.97;4974249;28;20180;-77
2021/07/15 10:07:25;;;;;;;1.30;1.20;;;;;;;17.48;78.28;95311.91;4989401;28;20196;-78
2021/07/15 10:10:17;;;;;;;1.20;1.08;;;;;;;17.53;76.03;95317.41;4973623;28;20184;-77
2021/07/15 10:12:42;;;;;;;1.17;1.13;;;;;;;17.22;75.82;95313.41;4972789;28;20204;-78
2021/07/15 10:15:09;;;;;;;1.08;1.00;;;;;;;17.08;77.86;95318.78;4973476;28;20223;-78
2021/07/15 10:17:42;;;;;;;1.38;1.27;;;;;;;16.88;78.28;95313.44;4989790;28;20199;-79
2021/07/15 10:20:12;;;;;;;2.30;1.75;;;;;;;17.09;79.51;95326.47;4989613;28;20271;-79
2021/07/15 10:22:38;;;;;;;1.65;1.55;;;;;;;17.37;78.71;95317.72;4975682;28;20199;-77
2021/07/15 10:25:03;;;;;;;1.92;1.83;;;;;;;17.42;75.82;95321.41;4992204;28;20706;-78
2021/07/15 10:27:29;;;;;;;1.52;1.42;;;;;;;17.58;74.67;95315.00;4975098;28;20215;-77
2021/07/15 10:29:57;;;;;;;1.95;1.85;;;;;;;17.69;75.87;95313.63;4992702;28;20194;-79
2021/07/15 10:32:23;;;;;;;2.20;2.00;;;;;;;18.28;73.03;95308.50;4977780;28;20183;-77
2021/07/15 10:34:52;;;;;;;1.75;1.65;;;;;;;18.36;70.11;95308.31;4976563;28;20187;-77
2021/07/15 10:37:17;;;;;;;1.92;1.83;;;;;;;18.44;71.56;95307.31;4991594;28;20631;-79
2021/07/15 10:39:44;;;;;;;1.83;1.73;;;;;;;18.60;69.70;95308.72;4973647;28;20194;-78
2021/07/15 10:42:09;;;;;;;2.00;1.80;;;;;;;18.61;70.54;95313.78;4992537;28;20196;-78
2021/07/15 10:44:35;;;;;;;1.55;1.45;;;;;;;19.08;68.75;95311.13;4976654;28;20234;-78
2021/07/15 10:47:00;;;;;;;1.35;1.25;;;;;;;19.25;68.82;95312.28;4992943;28;20203;-78
2021/07/15 10:49:26;;;;;;;1.38;1.30;;;;;;;18.85;67.58;95312.38;4992410;28;20180;-77
2021/07/15 10:51:53;;;;;;;2.05;1.80;;;;;;;18.30;68.76;95319.66;4991935;28;20245;-78
2021/07/15 10:54:19;;;;;;;1.80;1.70;;;;;;;18.48;70.09;95320.88;4992372;28;20212;-78
2021/07/15 10:56:47;;;;;;;1.90;1.80;;;;;;;18.80;68.30;95322.69;4976178;28;20207;-76
2021/07/15 10:59:31;;;;;;;1.75;1.65;;;;;;;18.91;68.61;95322.09;4992908;28;20176;-77
2021/07/15 11:02:01;;;;;;;2.08;1.77;;;;;;;19.01;67.68;95329.56;4989937;28;20304;-78
2021/07/15 11:04:29;;;;;;;2.28;1.80;;;;;;;19.05;67.63;95337.84;4976581;28;20265;-76
2021/07/15 11:06:57;;;;;;;2.00;1.90;;;;;;;18.48;69.07;95336.66;4993296;28;20578;-77
2021/07/15 11:09:30;;;;;;;2.40;2.20;;;;;;;18.10;70.95;95339.81;4976699;28;20182;-78
2021/07/15 11:12:00;;;;;;;2.17;2.08;;;;;;;17.91;71.75;95340.56;4992268;28;20515;-78
2021/07/15 11:14:46;;;;;;;3.63;2.30;;;;;;;17.52;74.58;95342.84;4992999;28;20203;-78
2021/07/15 11:17:20;;;;;;;5.70;2.63;;;;;;;17.41;74.36;95345.22;4993326;28;20651;-78
2021/07/15 11:20:04;;;;;;;2.53;2.38;;;;;;;17.45;74.12;95342.00;4993858;28;20552;-78
2021/07/15 11:22:59;;;;;;;2.47;2.10;;;;;;;17.68;74.13;95340.91;4991793;28;20202;-78
2021/07/15 11:25:27;;;;;;;2.47;2.28;;;;;;;18.03;73.54;95346.91;4910109;29;20191;-78
2021/07/15 11:27:59;;;;;;;1.83;1.73;;;;;;;18.23;72.53;95336.41;4912073;29;20330;-78
2021/07/15 11:30:29;;;;;;;2.35;2.15;;;;;;;18.51;71.95;95334.41;4883923;29;20198;-78
2021/07/15 11:32:56;;;;;;;3.08;1.83;;;;;;;18.76;71.08;95339.09;4880928;29;20210;-77
2021/07/15 11:35:27;;;;;;;1.85;1.75;;;;;;;18.77;70.09;95341.53;4875177;29;20246;-77
2021/07/15 11:38:12;;;;;;;2.40;2.20;;;;;;;18.81;69.26;95342.72;4897970;29;20229;-77